createdAt,value
2018-07-06T00:00:07.432Z,66.10
2018-07-06T00:00:39.223Z,65.40
2018-07-06T00:01:11.130Z,65.50
2018-07-06T00:01:42.877Z,65.40
2018-07-06T00:02:14.610Z,65.50
2018-07-06T00:02:46.346Z,65.50
2018-07-06T00:03:18.105Z,65.60
2018-07-06T00:04:21.813Z,65.40
2018-07-06T00:04:53.533Z,65.60
2018-07-06T00:05:25.267Z,65.70
2018-07-06T00:05:57.028Z,65.50
2018-07-06T00:06:28.766Z,65.60
2018-07-06T00:07:00.483Z,65.60
2018-07-06T00:07:32.213Z,65.50
2018-07-06T00:08:03.938Z,65.50
2018-07-06T00:08:35.654Z,65.50
2018-07-06T00:09:07.398Z,65.60
2018-07-06T00:09:39.118Z,65.50
2018-07-06T00:10:10.849Z,65.20
2018-07-06T00:10:42.574Z,65.50
2018-07-06T00:11:14.312Z,65.50
2018-07-06T00:11:46.033Z,65.50
2018-07-06T00:12:49.990Z,65.60
2018-07-06T00:13:21.725Z,65.50
2018-07-06T00:13:53.482Z,65.50
2018-07-06T00:14:25.234Z,65.40
2018-07-06T00:14:56.961Z,65.50
2018-07-06T00:15:28.696Z,65.40
2018-07-06T00:16:00.427Z,65.40
2018-07-06T00:16:32.142Z,65.40
2018-07-06T00:17:03.880Z,65.40
2018-07-06T00:17:35.617Z,65.50
2018-07-06T00:18:07.344Z,65.40
2018-07-06T00:18:39.079Z,65.40
2018-07-06T00:19:10.810Z,65.40
2018-07-06T00:19:42.534Z,65.40
2018-07-06T00:20:14.259Z,65.30
2018-07-06T00:20:46.010Z,65.20
2018-07-06T00:21:17.747Z,65.30
2018-07-06T00:21:49.479Z,65.30
2018-07-06T00:22:21.206Z,65.30
2018-07-06T00:22:52.934Z,65.40
2018-07-06T00:23:24.665Z,65.30
2018-07-06T00:23:56.422Z,65.40
2018-07-06T00:24:28.147Z,65.30
2018-07-06T00:24:59.893Z,65.30
2018-07-06T00:25:31.624Z,65.30
2018-07-06T00:26:03.360Z,65.20
2018-07-06T00:26:35.101Z,65.30
2018-07-06T00:27:07.053Z,65.30
2018-07-06T00:27:38.784Z,65.40
2018-07-06T00:28:10.519Z,65.30
2018-07-06T00:28:42.259Z,65.30
2018-07-06T00:29:13.973Z,65.40
2018-07-06T00:29:45.714Z,65.30
2018-07-06T00:30:17.447Z,65.30
2018-07-06T00:30:49.177Z,65.20
2018-07-06T00:31:20.907Z,65.20
2018-07-06T00:31:52.644Z,65.20
2018-07-06T00:32:24.364Z,65.20
2018-07-06T00:32:56.092Z,65.20
2018-07-06T00:33:27.815Z,65.20
2018-07-06T00:33:59.550Z,65.20
2018-07-06T00:34:31.296Z,65.20
2018-07-06T00:35:03.022Z,65.20
2018-07-06T00:35:34.781Z,65.20
2018-07-06T00:36:06.513Z,65.30
2018-07-06T00:36:38.479Z,65.30
2018-07-06T00:37:10.371Z,65.20
2018-07-06T00:37:42.094Z,65.20
2018-07-06T00:38:13.822Z,65.20
2018-07-06T00:38:45.549Z,65.20
2018-07-06T00:39:17.286Z,65.10
2018-07-06T00:39:49.011Z,65.20
2018-07-06T00:40:20.746Z,65.20
2018-07-06T00:40:52.466Z,65.30
2018-07-06T00:41:24.194Z,65.20
2018-07-06T00:41:55.945Z,65.20
2018-07-06T00:42:27.682Z,64.90
2018-07-06T00:42:59.401Z,65.20
2018-07-06T00:43:31.134Z,65.10
2018-07-06T00:44:02.860Z,65.10
2018-07-06T00:44:34.590Z,65.10
2018-07-06T00:45:06.334Z,65.10
2018-07-06T00:45:38.070Z,65.10
2018-07-06T00:46:09.803Z,65.00
2018-07-06T00:46:41.540Z,64.90
2018-07-06T00:47:13.553Z,64.80
2018-07-06T00:47:45.263Z,64.90
2018-07-06T00:48:16.987Z,64.80
2018-07-06T00:48:48.725Z,64.80
2018-07-06T00:49:20.646Z,65.00
2018-07-06T00:49:52.394Z,64.90
2018-07-06T00:50:24.138Z,65.00
2018-07-06T00:50:55.854Z,64.90
2018-07-06T00:51:27.600Z,65.00
2018-07-06T00:51:59.334Z,65.00
2018-07-06T00:52:31.084Z,65.00
2018-07-06T00:53:02.815Z,65.00
2018-07-06T00:53:34.542Z,65.10
2018-07-06T00:54:06.258Z,65.10
2018-07-06T00:54:38.003Z,65.20
2018-07-06T00:55:09.731Z,65.30
2018-07-06T00:55:41.459Z,65.20
2018-07-06T00:56:13.210Z,65.30
2018-07-06T00:56:44.930Z,65.20
2018-07-06T00:57:16.657Z,65.20
2018-07-06T00:57:48.406Z,65.20
2018-07-06T00:58:20.131Z,65.10
2018-07-06T00:58:51.846Z,65.70
2018-07-06T00:59:23.590Z,65.10
2018-07-06T00:59:55.315Z,65.10
2018-07-06T01:00:27.039Z,65.20
2018-07-06T01:00:58.790Z,65.20
2018-07-06T01:01:30.548Z,66.00
2018-07-06T01:02:02.447Z,65.20
2018-07-06T01:02:34.187Z,65.90
2018-07-06T01:03:05.909Z,65.20
2018-07-06T01:03:37.626Z,65.20
2018-07-06T01:04:09.357Z,65.30
2018-07-06T01:04:41.088Z,65.20
2018-07-06T01:05:12.814Z,65.10
2018-07-06T01:05:44.539Z,65.00
2018-07-06T01:06:16.272Z,65.00
2018-07-06T01:06:47.997Z,65.00
2018-07-06T01:07:19.743Z,65.00
2018-07-06T01:07:51.456Z,65.00
2018-07-06T01:08:23.186Z,65.00
2018-07-06T01:08:54.930Z,65.00
2018-07-06T01:09:26.663Z,64.90
2018-07-06T01:09:58.373Z,64.90
2018-07-06T01:10:30.102Z,64.90
2018-07-06T01:11:01.839Z,64.90
2018-07-06T01:11:33.553Z,64.90
2018-07-06T01:12:05.274Z,65.00
2018-07-06T01:12:37.030Z,65.00
2018-07-06T01:13:08.741Z,65.00
2018-07-06T01:13:40.466Z,65.00
2018-07-06T01:14:12.209Z,64.90
2018-07-06T01:14:43.939Z,64.80
2018-07-06T01:15:15.665Z,64.80
2018-07-06T01:15:47.415Z,64.80
2018-07-06T01:16:19.144Z,64.70
2018-07-06T01:16:50.858Z,64.80
2018-07-06T01:17:22.597Z,64.70
2018-07-06T01:17:54.318Z,64.70
2018-07-06T01:18:26.118Z,64.80
2018-07-06T01:18:57.848Z,64.70
2018-07-06T01:19:29.572Z,64.70
2018-07-06T01:20:01.340Z,64.90
2018-07-06T01:20:33.066Z,64.70
2018-07-06T01:21:04.798Z,64.80
2018-07-06T01:21:36.515Z,64.90
2018-07-06T01:22:08.247Z,65.00
2018-07-06T01:23:11.989Z,65.10
2018-07-06T01:23:43.718Z,65.00
2018-07-06T01:24:15.460Z,65.10
2018-07-06T01:24:47.177Z,65.00
2018-07-06T01:25:18.919Z,65.10
2018-07-06T01:25:50.656Z,65.00
2018-07-06T01:26:22.386Z,65.00
2018-07-06T01:26:54.123Z,65.10
2018-07-06T01:27:25.973Z,65.20
2018-07-06T01:27:57.694Z,65.20
2018-07-06T01:28:29.437Z,65.20
2018-07-06T01:29:01.224Z,65.00
2018-07-06T01:29:32.950Z,65.80
2018-07-06T01:30:04.672Z,65.10
2018-07-06T01:30:36.397Z,64.50
2018-07-06T01:31:08.164Z,64.90
2018-07-06T01:31:39.932Z,64.90
2018-07-06T01:32:11.864Z,64.90
2018-07-06T01:32:43.591Z,64.80
2018-07-06T01:33:15.340Z,64.70
2018-07-06T01:33:47.066Z,64.70
2018-07-06T01:34:18.797Z,64.70
2018-07-06T01:34:50.572Z,64.70
2018-07-06T01:35:22.312Z,64.70
2018-07-06T01:35:54.034Z,64.60
2018-07-06T01:36:25.783Z,64.70
2018-07-06T01:36:57.489Z,64.60
2018-07-06T01:37:29.228Z,64.70
2018-07-06T01:38:32.945Z,64.70
2018-07-06T01:39:04.670Z,64.60
2018-07-06T01:40:08.418Z,64.70
2018-07-06T01:40:40.145Z,64.70
2018-07-06T01:41:11.873Z,64.70
2018-07-06T01:41:43.602Z,64.70
2018-07-06T01:42:15.336Z,64.70
2018-07-06T01:42:47.059Z,64.70
2018-07-06T01:43:18.790Z,64.70
2018-07-06T01:43:50.517Z,64.70
2018-07-06T01:44:22.246Z,64.60
2018-07-06T01:44:53.995Z,64.70
2018-07-06T01:45:25.701Z,64.70
2018-07-06T01:45:57.422Z,64.70
2018-07-06T01:46:29.151Z,64.70
2018-07-06T01:47:00.870Z,64.70
2018-07-06T01:47:32.612Z,64.80
2018-07-06T01:48:04.368Z,64.70
2018-07-06T01:48:36.098Z,64.90
2018-07-06T01:49:07.834Z,64.80
2018-07-06T01:49:39.574Z,64.70
2018-07-06T01:50:11.302Z,64.60
2018-07-06T01:50:43.045Z,64.70
2018-07-06T01:51:14.774Z,64.70
2018-07-06T01:52:18.553Z,64.60
2018-07-06T01:52:50.284Z,64.80
2018-07-06T01:53:22.017Z,64.80
2018-07-06T01:53:53.744Z,64.70
2018-07-06T01:54:25.470Z,64.70
2018-07-06T01:55:29.238Z,64.60
2018-07-06T01:56:00.962Z,64.70
2018-07-06T01:56:32.700Z,64.70
2018-07-06T01:57:04.440Z,64.70
2018-07-06T01:57:36.191Z,64.70
2018-07-06T01:58:07.912Z,64.70
2018-07-06T01:58:39.630Z,64.70
2018-07-06T01:59:11.361Z,64.70
2018-07-06T01:59:43.091Z,64.70
2018-07-06T02:00:14.855Z,65.40
2018-07-06T02:01:18.611Z,64.60
2018-07-06T02:01:50.327Z,64.60
2018-07-06T02:02:22.050Z,64.70
2018-07-06T02:02:53.795Z,64.60
2018-07-06T02:03:25.545Z,64.70
2018-07-06T02:03:57.278Z,64.70
2018-07-06T02:04:29.006Z,64.60
2018-07-06T02:05:00.765Z,64.70
2018-07-06T02:05:32.454Z,64.80
2018-07-06T02:06:04.201Z,64.70
2018-07-06T02:06:35.930Z,64.70
2018-07-06T02:07:07.666Z,64.70
2018-07-06T02:07:39.397Z,64.70
2018-07-06T02:08:11.130Z,64.50
2018-07-06T02:08:42.848Z,64.60
2018-07-06T02:09:14.605Z,64.60
2018-07-06T02:09:46.340Z,64.60
2018-07-06T02:10:18.055Z,64.70
2018-07-06T02:10:49.819Z,64.60
2018-07-06T02:11:21.534Z,64.60
2018-07-06T02:11:53.264Z,64.60
2018-07-06T02:12:24.992Z,64.60
2018-07-06T02:12:56.723Z,64.50
2018-07-06T02:13:28.471Z,64.70
2018-07-06T02:14:00.209Z,64.60
2018-07-06T02:14:31.940Z,64.80
2018-07-06T02:15:03.676Z,64.70
2018-07-06T02:15:35.418Z,64.70
2018-07-06T02:16:07.140Z,64.70
2018-07-06T02:16:38.866Z,64.70
2018-07-06T02:17:10.596Z,64.80
2018-07-06T02:17:42.327Z,64.70
2018-07-06T02:18:14.057Z,64.70
2018-07-06T02:18:45.795Z,64.70
2018-07-06T02:19:17.581Z,64.70
2018-07-06T02:19:49.294Z,64.80
2018-07-06T02:20:21.024Z,65.40
2018-07-06T02:20:52.757Z,65.50
2018-07-06T02:21:24.554Z,64.80
2018-07-06T02:21:56.411Z,64.80
2018-07-06T02:22:28.324Z,64.90
2018-07-06T02:23:00.047Z,64.80
2018-07-06T02:23:31.773Z,64.80
2018-07-06T02:24:03.504Z,64.80
2018-07-06T02:24:35.235Z,64.80
2018-07-06T02:25:06.993Z,64.90
2018-07-06T02:25:38.722Z,64.80
2018-07-06T02:26:10.451Z,64.80
2018-07-06T02:26:42.169Z,64.90
2018-07-06T02:27:45.957Z,64.80
2018-07-06T02:28:17.718Z,64.80
2018-07-06T02:28:49.441Z,64.90
2018-07-06T02:29:21.179Z,64.90
2018-07-06T02:29:52.894Z,64.90
2018-07-06T02:30:24.639Z,64.90
2018-07-06T02:30:56.358Z,64.80
2018-07-06T02:31:28.137Z,64.80
2018-07-06T02:31:59.906Z,64.80
2018-07-06T02:32:31.642Z,64.70
2018-07-06T02:33:03.384Z,64.80
2018-07-06T02:33:35.128Z,64.70
2018-07-06T02:34:06.850Z,64.80
2018-07-06T02:34:38.593Z,64.80
2018-07-06T02:35:10.370Z,64.90
2018-07-06T02:35:42.093Z,64.90
2018-07-06T02:36:13.825Z,64.90
2018-07-06T02:36:45.572Z,64.80
2018-07-06T02:37:17.285Z,64.80
2018-07-06T02:37:49.017Z,64.80
2018-07-06T02:38:20.742Z,64.80
2018-07-06T02:38:52.497Z,64.80
2018-07-06T02:39:24.212Z,64.90
2018-07-06T02:39:56.150Z,64.80
2018-07-06T02:40:27.893Z,64.90
2018-07-06T02:40:59.636Z,65.00
2018-07-06T02:41:31.363Z,64.90
2018-07-06T02:42:03.102Z,64.90
2018-07-06T02:42:34.830Z,65.00
2018-07-06T02:43:06.561Z,65.00
2018-07-06T02:43:38.287Z,64.90
2018-07-06T02:44:10.023Z,64.90
2018-07-06T02:44:41.737Z,65.00
2018-07-06T02:45:13.466Z,64.90
2018-07-06T02:45:45.193Z,64.70
2018-07-06T02:46:16.917Z,64.70
2018-07-06T02:46:48.686Z,64.70
2018-07-06T02:47:20.432Z,65.30
2018-07-06T02:47:52.169Z,64.70
2018-07-06T02:48:23.904Z,64.80
2018-07-06T02:48:55.648Z,64.70
2018-07-06T02:49:27.374Z,64.80
2018-07-06T02:49:59.103Z,64.80
2018-07-06T02:50:30.861Z,64.80
2018-07-06T02:51:02.656Z,64.90
2018-07-06T02:51:34.347Z,64.90
2018-07-06T02:52:06.098Z,64.90
2018-07-06T02:52:37.813Z,64.90
2018-07-06T02:53:09.737Z,64.90
2018-07-06T02:53:41.462Z,65.00
2018-07-06T02:54:13.206Z,65.00
2018-07-06T02:54:44.935Z,65.10
2018-07-06T02:55:16.704Z,65.20
2018-07-06T02:55:48.595Z,65.30
2018-07-06T02:56:20.322Z,65.20
2018-07-06T02:56:52.078Z,65.40
2018-07-06T02:57:23.801Z,65.40
2018-07-06T02:57:55.537Z,65.40
2018-07-06T02:58:27.274Z,65.50
2018-07-06T02:58:59.009Z,65.50
2018-07-06T02:59:30.732Z,65.50
2018-07-06T03:00:02.467Z,65.50
2018-07-06T03:00:34.198Z,65.50
2018-07-06T03:01:05.922Z,65.50
2018-07-06T03:01:37.663Z,65.50
2018-07-06T03:02:09.391Z,65.40
2018-07-06T03:02:41.115Z,65.50
2018-07-06T03:03:12.843Z,65.50
2018-07-06T03:03:44.598Z,65.50
2018-07-06T03:04:16.326Z,65.60
2018-07-06T03:04:48.073Z,65.50
2018-07-06T03:05:19.863Z,65.60
2018-07-06T03:05:51.599Z,65.50
2018-07-06T03:06:23.414Z,65.50
2018-07-06T03:06:55.144Z,65.40
2018-07-06T03:07:26.977Z,65.50
2018-07-06T03:07:58.718Z,65.50
2018-07-06T03:08:30.448Z,65.40
2018-07-06T03:09:02.189Z,65.40
2018-07-06T03:09:33.928Z,65.60
2018-07-06T03:10:05.664Z,65.50
2018-07-06T03:10:37.586Z,65.60
2018-07-06T03:11:09.310Z,65.70
2018-07-06T03:11:41.041Z,65.80
2018-07-06T03:12:12.766Z,65.80
2018-07-06T03:12:44.548Z,65.80
2018-07-06T03:13:16.290Z,65.90
2018-07-06T03:13:48.072Z,65.80
2018-07-06T03:14:19.769Z,65.80
2018-07-06T03:14:51.497Z,65.80
2018-07-06T03:15:23.242Z,65.80
2018-07-06T03:15:54.971Z,65.80
2018-07-06T03:16:26.709Z,65.90
2018-07-06T03:16:58.500Z,65.90
2018-07-06T03:17:30.223Z,65.90
2018-07-06T03:18:01.957Z,66.70
2018-07-06T03:18:33.900Z,65.90
2018-07-06T03:19:05.622Z,65.80
2018-07-06T03:19:37.349Z,65.90
2018-07-06T03:20:09.077Z,65.90
2018-07-06T03:20:40.822Z,65.90
2018-07-06T03:21:12.551Z,65.80
2018-07-06T03:21:44.270Z,66.50
2018-07-06T03:22:16.014Z,65.80
2018-07-06T03:22:47.747Z,65.70
2018-07-06T03:23:19.478Z,65.70
2018-07-06T03:23:51.219Z,65.80
2018-07-06T03:24:22.943Z,65.80
2018-07-06T03:24:54.770Z,65.90
2018-07-06T03:25:26.499Z,65.80
2018-07-06T03:25:58.229Z,65.80
2018-07-06T03:26:29.966Z,66.00
2018-07-06T03:27:01.689Z,66.00
2018-07-06T03:27:33.408Z,66.00
2018-07-06T03:28:05.324Z,66.00
2018-07-06T03:28:37.343Z,66.00
2018-07-06T03:29:09.097Z,66.10
2018-07-06T03:29:40.826Z,66.10
2018-07-06T03:30:12.562Z,66.00
2018-07-06T03:30:44.289Z,66.00
2018-07-06T03:31:16.068Z,66.00
2018-07-06T03:31:47.802Z,66.10
2018-07-06T03:32:19.530Z,66.00
2018-07-06T03:32:51.271Z,66.00
2018-07-06T03:33:22.978Z,66.00
2018-07-06T03:33:54.714Z,66.00
2018-07-06T03:34:26.445Z,65.90
2018-07-06T03:34:58.168Z,65.90
2018-07-06T03:35:29.928Z,65.90
2018-07-06T03:36:01.646Z,66.00
2018-07-06T03:36:33.395Z,66.00
2018-07-06T03:37:37.070Z,66.10
2018-07-06T03:38:08.818Z,66.10
2018-07-06T03:38:40.743Z,66.20
2018-07-06T03:39:12.470Z,66.00
2018-07-06T03:39:44.227Z,66.00
2018-07-06T03:40:15.943Z,66.00
2018-07-06T03:40:47.675Z,66.10
2018-07-06T03:41:19.423Z,66.10
2018-07-06T03:41:51.165Z,66.20
2018-07-06T03:42:22.895Z,66.10
2018-07-06T03:42:54.645Z,66.10
2018-07-06T03:43:26.357Z,66.10
2018-07-06T03:43:58.089Z,66.10
2018-07-06T03:44:29.826Z,66.00
2018-07-06T03:45:01.553Z,66.00
2018-07-06T03:45:33.269Z,66.10
2018-07-06T03:46:05.018Z,66.10
2018-07-06T03:46:36.760Z,66.10
2018-07-06T03:47:08.527Z,66.10
2018-07-06T03:47:40.298Z,66.10
2018-07-06T03:48:12.161Z,66.00
2018-07-06T03:48:44.022Z,67.00
2018-07-06T03:49:15.730Z,66.10
2018-07-06T03:49:47.453Z,66.00
2018-07-06T03:50:19.197Z,66.00
2018-07-06T03:50:50.918Z,66.10
2018-07-06T03:51:22.642Z,66.10
2018-07-06T03:51:54.388Z,66.20
2018-07-06T03:52:26.109Z,66.30
2018-07-06T03:52:57.829Z,66.30
2018-07-06T03:53:29.572Z,66.30
2018-07-06T03:54:01.297Z,66.70
2018-07-06T03:54:33.030Z,66.20
2018-07-06T03:55:04.780Z,66.30
2018-07-06T03:55:36.497Z,66.30
2018-07-06T03:56:08.300Z,66.30
2018-07-06T03:56:40.017Z,66.40
2018-07-06T03:57:11.750Z,66.40
2018-07-06T03:57:43.473Z,66.50
2018-07-06T03:58:15.210Z,66.50
2018-07-06T03:58:46.930Z,66.60
2018-07-06T03:59:18.646Z,66.70
2018-07-06T03:59:50.373Z,66.60
2018-07-06T04:00:22.107Z,66.60
2018-07-06T04:01:25.856Z,66.80
2018-07-06T04:01:57.598Z,67.10
2018-07-06T04:02:29.326Z,67.10
2018-07-06T04:03:01.063Z,67.20
2018-07-06T04:03:32.782Z,67.20
2018-07-06T04:04:04.511Z,67.20
2018-07-06T04:04:36.242Z,68.00
2018-07-06T04:05:07.978Z,67.30
2018-07-06T04:05:39.702Z,67.40
2018-07-06T04:06:11.462Z,67.50
2018-07-06T04:06:43.187Z,68.00
2018-07-06T04:07:14.930Z,68.00
2018-07-06T04:07:46.634Z,68.70
2018-07-06T04:08:18.357Z,69.70
2018-07-06T04:08:50.091Z,69.80
2018-07-06T04:09:21.808Z,71.30
2018-07-06T04:09:53.525Z,70.20
2018-07-06T04:10:25.262Z,70.10
2018-07-06T04:10:57.005Z,70.30
2018-07-06T04:11:28.733Z,70.00
2018-07-06T04:12:00.464Z,70.00
2018-07-06T04:12:32.186Z,69.60
2018-07-06T04:13:03.914Z,69.80
2018-07-06T04:13:35.674Z,69.80
2018-07-06T04:14:07.401Z,69.90
2018-07-06T04:14:39.122Z,70.20
2018-07-06T04:15:10.889Z,70.00
2018-07-06T04:15:42.624Z,69.80
2018-07-06T04:16:14.461Z,69.60
2018-07-06T04:16:46.155Z,69.70
2018-07-06T04:17:17.894Z,69.20
2018-07-06T04:17:49.615Z,69.10
2018-07-06T04:18:21.344Z,69.00
2018-07-06T04:18:53.070Z,69.50
2018-07-06T04:19:24.803Z,69.40
2018-07-06T04:19:56.520Z,69.10
2018-07-06T04:20:28.312Z,69.10
2018-07-06T04:20:59.995Z,69.00
2018-07-06T04:21:31.725Z,69.00
2018-07-06T04:22:03.454Z,69.20
2018-07-06T04:22:35.185Z,69.10
2018-07-06T04:23:06.918Z,69.30
2018-07-06T04:23:38.664Z,69.20
2018-07-06T04:24:10.401Z,69.40
2018-07-06T04:24:42.119Z,68.90
2018-07-06T04:25:13.837Z,69.20
2018-07-06T04:25:45.576Z,69.00
2018-07-06T04:26:17.313Z,69.00
2018-07-06T04:26:49.036Z,68.80
2018-07-06T04:27:20.802Z,68.90
2018-07-06T04:27:52.534Z,68.70
2018-07-06T04:28:24.272Z,69.00
2018-07-06T04:28:56.014Z,68.80
2018-07-06T04:29:27.757Z,68.70
2018-07-06T04:29:59.476Z,68.50
2018-07-06T04:30:31.217Z,68.40
2018-07-06T04:31:02.948Z,68.90
2018-07-06T04:31:34.688Z,68.40
2018-07-06T04:32:06.441Z,68.40
2018-07-06T04:32:38.211Z,68.40
2018-07-06T04:33:09.959Z,68.20
2018-07-06T04:33:41.705Z,68.10
2018-07-06T04:34:13.450Z,68.40
2018-07-06T04:34:45.198Z,68.70
2018-07-06T04:35:16.937Z,68.40
2018-07-06T04:35:48.662Z,69.00
2018-07-06T04:36:20.434Z,69.50
2018-07-06T04:36:52.159Z,68.70
2018-07-06T04:37:23.934Z,68.50
2018-07-06T04:37:55.669Z,68.70
2018-07-06T04:38:27.385Z,68.50
2018-07-06T04:38:59.118Z,68.40
2018-07-06T04:39:30.850Z,68.30
2018-07-06T04:40:02.573Z,68.90
2018-07-06T04:40:34.286Z,68.20
2018-07-06T04:41:06.020Z,68.00
2018-07-06T04:41:37.734Z,67.90
2018-07-06T04:42:09.454Z,68.00
2018-07-06T04:42:41.430Z,68.00
2018-07-06T04:43:13.154Z,67.90
2018-07-06T04:43:44.884Z,67.80
2018-07-06T04:44:16.618Z,67.70
2018-07-06T04:44:48.539Z,67.70
2018-07-06T04:45:20.257Z,67.70
2018-07-06T04:45:51.970Z,67.60
2018-07-06T04:46:23.689Z,68.50
2018-07-06T04:46:55.405Z,67.80
2018-07-06T04:47:27.134Z,67.70
2018-07-06T04:47:58.870Z,67.60
2018-07-06T04:48:30.590Z,67.60
2018-07-06T04:49:02.326Z,67.30
2018-07-06T04:49:34.069Z,68.00
2018-07-06T04:50:05.792Z,67.50
2018-07-06T04:50:37.517Z,67.40
2018-07-06T04:51:09.284Z,67.60
2018-07-06T04:51:40.977Z,67.60
2018-07-06T04:52:12.701Z,67.40
2018-07-06T04:52:44.434Z,67.50
2018-07-06T04:53:16.180Z,67.60
2018-07-06T04:53:47.907Z,67.60
2018-07-06T04:54:19.618Z,67.60
2018-07-06T04:54:51.345Z,67.80
2018-07-06T04:55:23.065Z,67.90
2018-07-06T04:55:54.796Z,67.40
2018-07-06T04:56:26.543Z,67.40
2018-07-06T04:56:58.329Z,67.60
2018-07-06T04:57:30.061Z,67.30
2018-07-06T04:58:01.783Z,67.20
2018-07-06T04:58:33.515Z,67.90
2018-07-06T04:59:05.244Z,67.60
2018-07-06T04:59:36.969Z,67.70
2018-07-06T05:00:08.698Z,67.40
2018-07-06T05:01:12.452Z,67.70
2018-07-06T05:01:44.169Z,67.40
2018-07-06T05:02:15.897Z,67.40
2018-07-06T05:02:47.624Z,67.30
2018-07-06T05:03:51.356Z,67.50
2018-07-06T05:04:23.288Z,67.60
2018-07-06T05:04:55.034Z,67.60
2018-07-06T05:05:26.760Z,67.70
2018-07-06T05:05:58.498Z,67.90
2018-07-06T05:06:30.236Z,67.80
2018-07-06T05:07:01.962Z,67.80
2018-07-06T05:07:33.693Z,68.50
2018-07-06T05:08:05.570Z,67.70
2018-07-06T05:08:37.297Z,67.70
2018-07-06T05:09:09.027Z,67.80
2018-07-06T05:09:40.767Z,67.80
2018-07-06T05:10:12.488Z,67.50
2018-07-06T05:10:44.221Z,67.50
2018-07-06T05:11:15.944Z,67.50
2018-07-06T05:11:47.727Z,67.50
2018-07-06T05:12:19.429Z,67.60
2018-07-06T05:12:51.158Z,67.70
2018-07-06T05:13:22.884Z,67.70
2018-07-06T05:13:54.630Z,67.80
2018-07-06T05:14:26.346Z,67.60
2018-07-06T05:14:58.078Z,67.60
2018-07-06T05:15:29.831Z,67.30
2018-07-06T05:16:01.548Z,67.50
2018-07-06T05:16:33.337Z,67.60
2018-07-06T05:17:05.219Z,67.70
2018-07-06T05:17:36.929Z,67.80
2018-07-06T05:18:08.654Z,67.60
2018-07-06T05:18:40.399Z,67.80
2018-07-06T05:19:12.120Z,67.60
2018-07-06T05:19:43.859Z,67.90
2018-07-06T05:20:15.599Z,67.80
2018-07-06T05:21:19.354Z,67.90
2018-07-06T05:21:51.105Z,67.80
2018-07-06T05:22:22.830Z,67.80
2018-07-06T05:22:54.565Z,67.80
2018-07-06T05:23:26.617Z,67.60
2018-07-06T05:23:58.360Z,68.00
2018-07-06T05:24:30.090Z,67.80
2018-07-06T05:25:01.816Z,67.50
2018-07-06T05:25:33.542Z,67.70
2018-07-06T05:26:05.265Z,67.60
2018-07-06T05:26:36.991Z,68.50
2018-07-06T05:27:08.719Z,67.60
2018-07-06T05:27:40.441Z,67.90
2018-07-06T05:28:12.169Z,68.00
2018-07-06T05:28:43.899Z,67.80
2018-07-06T05:29:15.625Z,68.70
2018-07-06T05:29:47.402Z,67.90
2018-07-06T05:30:19.133Z,67.80
2018-07-06T05:30:50.866Z,68.30
2018-07-06T05:31:22.610Z,67.90
2018-07-06T05:31:54.394Z,67.80
2018-07-06T05:32:26.272Z,67.90
2018-07-06T05:32:58.007Z,68.00
2018-07-06T05:33:29.767Z,67.90
2018-07-06T05:34:01.482Z,67.90
2018-07-06T05:34:33.201Z,67.90
2018-07-06T05:35:04.946Z,68.00
2018-07-06T05:35:36.683Z,68.30
2018-07-06T05:36:08.398Z,68.30
2018-07-06T05:36:40.126Z,68.20
2018-07-06T05:37:11.928Z,68.00
2018-07-06T05:37:43.661Z,68.30
2018-07-06T05:38:15.579Z,68.00
2018-07-06T05:38:47.323Z,68.30
2018-07-06T05:39:19.070Z,68.40
2018-07-06T05:39:50.854Z,68.40
2018-07-06T05:40:22.612Z,68.40
2018-07-06T05:40:54.337Z,68.60
2018-07-06T05:41:26.074Z,68.60
2018-07-06T05:41:57.804Z,68.30
2018-07-06T05:42:29.833Z,68.50
2018-07-06T05:43:01.578Z,68.60
2018-07-06T05:43:33.320Z,68.30
2018-07-06T05:44:05.229Z,68.20
2018-07-06T05:44:36.966Z,68.20
2018-07-06T05:45:08.689Z,68.40
2018-07-06T05:45:40.433Z,68.30
2018-07-06T05:46:12.170Z,68.50
2018-07-06T05:46:43.900Z,68.40
2018-07-06T05:47:15.620Z,68.40
2018-07-06T05:47:47.354Z,68.30
2018-07-06T05:48:19.080Z,68.30
2018-07-06T05:48:50.843Z,68.60
2018-07-06T05:49:22.546Z,68.50
2018-07-06T05:49:54.277Z,68.30
2018-07-06T05:50:26.017Z,68.30
2018-07-06T05:50:57.747Z,68.40
2018-07-06T05:51:29.486Z,68.20
2018-07-06T05:52:01.218Z,68.20
2018-07-06T05:52:32.959Z,68.10
2018-07-06T05:53:04.670Z,68.00
2018-07-06T05:53:36.404Z,68.20
2018-07-06T05:54:08.139Z,68.40
2018-07-06T05:54:39.863Z,68.40
2018-07-06T05:55:11.601Z,68.10
2018-07-06T05:55:43.326Z,68.30
2018-07-06T05:56:15.042Z,68.40
2018-07-06T05:56:46.773Z,68.50
2018-07-06T05:57:18.526Z,68.80
2018-07-06T05:57:50.250Z,68.50
2018-07-06T05:58:21.999Z,68.40
2018-07-06T05:58:53.746Z,68.50
2018-07-06T05:59:25.480Z,68.50
2018-07-06T05:59:57.407Z,69.10
2018-07-06T06:00:29.122Z,68.80
2018-07-06T06:01:00.853Z,68.70
2018-07-06T06:01:32.581Z,68.80
2018-07-06T06:02:04.313Z,69.00
2018-07-06T06:02:36.040Z,69.10
2018-07-06T06:03:07.773Z,69.00
2018-07-06T06:03:39.488Z,69.00
2018-07-06T06:04:11.215Z,68.90
2018-07-06T06:04:42.996Z,69.10
2018-07-06T06:05:14.873Z,69.20
2018-07-06T06:05:46.606Z,69.00
2018-07-06T06:06:18.325Z,69.70
2018-07-06T06:06:50.071Z,69.70
2018-07-06T06:07:21.796Z,69.30
2018-07-06T06:07:53.534Z,69.10
2018-07-06T06:08:25.268Z,69.10
2018-07-06T06:09:29.021Z,69.10
2018-07-06T06:10:00.765Z,69.40
2018-07-06T06:10:32.479Z,69.20
2018-07-06T06:11:04.228Z,69.20
2018-07-06T06:11:35.938Z,69.50
2018-07-06T06:12:07.686Z,69.30
2018-07-06T06:12:39.601Z,69.20
2018-07-06T06:13:11.338Z,69.40
2018-07-06T06:13:43.088Z,69.60
2018-07-06T06:14:14.890Z,69.50
2018-07-06T06:14:46.622Z,69.20
2018-07-06T06:15:18.543Z,69.40
2018-07-06T06:15:50.266Z,69.40
2018-07-06T06:16:22.017Z,69.40
2018-07-06T06:16:53.721Z,69.30
2018-07-06T06:17:25.439Z,69.40
2018-07-06T06:17:57.209Z,69.40
2018-07-06T06:18:28.980Z,69.20
2018-07-06T06:19:00.883Z,69.20
2018-07-06T06:19:32.615Z,69.20
2018-07-06T06:20:04.354Z,69.40
2018-07-06T06:20:36.089Z,69.20
2018-07-06T06:21:07.833Z,69.30
2018-07-06T06:21:39.562Z,69.30
2018-07-06T06:22:11.497Z,69.30
2018-07-06T06:22:43.221Z,69.30
2018-07-06T06:23:14.940Z,69.60
2018-07-06T06:23:46.670Z,69.60
2018-07-06T06:24:18.445Z,69.50
2018-07-06T06:24:50.234Z,69.30
2018-07-06T06:25:22.107Z,69.40
2018-07-06T06:25:53.842Z,69.50
2018-07-06T06:26:25.576Z,69.50
2018-07-06T06:26:57.310Z,69.70
2018-07-06T06:27:29.026Z,69.40
2018-07-06T06:28:00.759Z,69.40
2018-07-06T06:28:32.474Z,69.50
2018-07-06T06:29:04.202Z,69.60
2018-07-06T06:29:35.926Z,69.50
2018-07-06T06:30:07.672Z,69.70
2018-07-06T06:30:39.393Z,69.70
2018-07-06T06:31:11.114Z,69.60
2018-07-06T06:31:42.832Z,69.70
2018-07-06T06:32:14.561Z,69.70
2018-07-06T06:32:46.282Z,69.50
2018-07-06T06:33:18.071Z,69.50
2018-07-06T06:33:50.044Z,69.70
2018-07-06T06:34:21.882Z,69.90
2018-07-06T06:34:53.613Z,69.70
2018-07-06T06:35:25.410Z,69.60
2018-07-06T06:35:57.139Z,69.60
2018-07-06T06:36:28.929Z,69.70
2018-07-06T06:37:00.652Z,69.70
2018-07-06T06:37:32.373Z,70.00
2018-07-06T06:38:04.099Z,69.80
2018-07-06T06:38:35.824Z,69.50
2018-07-06T06:39:07.545Z,69.40
2018-07-06T06:39:39.274Z,69.50
2018-07-06T06:40:11.010Z,70.10
2018-07-06T06:40:42.729Z,69.60
2018-07-06T06:41:14.498Z,69.50
2018-07-06T06:41:46.231Z,69.50
2018-07-06T06:42:17.962Z,69.50
2018-07-06T06:42:49.774Z,69.60
2018-07-06T06:43:21.485Z,69.50
2018-07-06T06:43:53.218Z,69.50
2018-07-06T06:44:24.942Z,69.60
2018-07-06T06:44:56.692Z,69.60
2018-07-06T06:45:28.406Z,69.50
2018-07-06T06:46:00.143Z,69.30
2018-07-06T06:46:31.897Z,69.60
2018-07-06T06:47:03.802Z,69.60
2018-07-06T06:47:35.521Z,69.40
2018-07-06T06:48:07.241Z,69.50
2018-07-06T06:48:38.969Z,69.70
2018-07-06T06:49:10.681Z,69.60
2018-07-06T06:49:42.407Z,69.60
2018-07-06T06:50:14.135Z,69.70
2018-07-06T06:50:45.893Z,69.60
2018-07-06T06:51:17.798Z,70.00
2018-07-06T06:51:49.533Z,69.90
2018-07-06T06:52:21.250Z,69.60
2018-07-06T06:52:52.968Z,69.90
2018-07-06T06:53:24.702Z,69.90
2018-07-06T06:53:56.642Z,69.70
2018-07-06T06:54:28.571Z,69.60
2018-07-06T06:55:00.287Z,69.60
2018-07-06T06:55:32.006Z,70.30
2018-07-06T06:56:03.939Z,69.70
2018-07-06T06:56:35.672Z,69.50